Portada
METAR-TAF:

METAR-TAF

Aeroports :

Aeroport Internacional de Xangai-Hongqiao

Xangai-Hongqiao, Xina

latitud: 31-10N, longitud: 121-26E, altitud: 7 m

Observació

L'informe es va fer fa 12 minuts, a les 00:00 UTC
Vent 6 kt amb direcció variable amb ràfegues de 16 kt
Temperatura 23°C
Humitat 65%
Pressió 1012 hPa
Visibilitat 10 km o més
sense núvols per sota de 1500 mi sense presència de cumulonimbus.

METAR: ZSSS 070000Z VRB03G08MPS CAVOK 23/16 Q1012 NOSIG

Hora: 08:12 (00:12 UTC)

Pronòstic

L'informe es va fer fa 3 hores i 9 minuts, a les 21:03 UTC
Pronòstic vàlid del 07 a les 00 UTC al 07 a les 24 UTC
Vent 8 kt del Sud-Oest
Visibilitat: 6000 m
Cel ennuvolat a una alçada de 2000 ft
Evolucionant progressivament
l' 07 a les 03 UTC al 07 a les 04 UTC
Vent 8 kt del Oest

TAF: ZSSS 062103Z 0700/0724 22004MPS 6000 BKN020 TX28/0706Z TN19/0721Z BECMG 0703/0704 28004MPS

Observacions i pronòstics meteorològics de més de 4000 aeroports (METAR i TAF).

Les estacions disponibles són els punts grocs i vermells al mapa.

Posi el ratolí al punt desitjat per veure el nom de l'estació.

Feu clic per veure les observacions i els pronòstics meteorològics.

Per canviar el mapa: feu clic els botons verds amb una creu de color negre per apropar; al botó verd amb un guió per allunyar la imatge; o en les fletxes verdes per a mapes adjacents.


METAR-TAF: